Time,TemperatureF,DewpointF,PressureIn,WindDirection,WindDirectionDegrees,WindSpeedMPH,WindSpeedGustMPH,Humidity,HourlyPrecipIn,Conditions,Clouds,dailyrainin,SoftwareType,DateUTC
2013-04-29 00:00:00,76.8,38.3,29.63,SSW,211,9.0,16.0,25,0.00,,,0.00,Wunderground v.1.15,2013-04-29 07:00:00,
2013-04-29 00:05:00,77.0,37.4,29.63,SW,234,10.0,16.0,24,0.00,,,0.00,Wunderground v.1.15,2013-04-29 07:05:00,
2013-04-29 00:15:00,77.6,36.8,29.63,SSW,207,10.0,10.0,23,0.00,,,0.00,Wunderground v.1.15,2013-04-29 07:15:00,
2013-04-29 00:20:00,77.4,37.8,29.63,SW,221,10.0,14.0,24,0.00,,,0.00,Wunderground v.1.15,2013-04-29 07:20:00,
2013-04-29 00:30:00,77.4,37.8,29.63,South,170,10.0,10.0,24,0.00,,,0.00,Wunderground v.1.15,2013-04-29 07:30:00,
2013-04-29 00:35:00,77.4,37.8,29.63,SSW,212,10.0,10.0,24,0.00,,,0.00,Wunderground v.1.15,2013-04-29 07:35:00,
2013-04-29 00:40:00,77.6,36.8,29.63,SSW,203,10.0,10.0,23,0.00,,,0.00,Wunderground v.1.15,2013-04-29 07:40:00,
2013-04-29 00:50:00,77.2,36.5,29.63,SW,228,5.0,5.0,23,0.00,,,0.00,Wunderground v.1.15,2013-04-29 07:50:00,
2013-04-29 01:00:00,76.8,37.3,29.63,SSW,208,4.0,7.0,24,0.00,,,0.00,Wunderground v.1.15,2013-04-29 08:00:00,
2013-04-29 01:05:00,76.7,38.2,29.63,SW,223,5.0,10.0,25,0.00,,,0.00,Wunderground v.1.15,2013-04-29 08:05:00,
2013-04-29 01:15:00,76.7,38.2,29.63,SW,222,10.0,10.0,25,0.00,,,0.00,Wunderground v.1.15,2013-04-29 08:15:00,
2013-04-29 01:20:00,77.0,37.4,29.63,SSW,199,8.0,8.0,24,0.00,,,0.00,Wunderground v.1.15,2013-04-29 08:20:00,
2013-04-29 01:25:00,76.3,36.8,29.63,SSW,210,4.0,8.0,24,0.00,,,0.00,Wunderground v.1.15,2013-04-29 08:25:00,
2013-04-29 01:35:00,75.6,36.2,29.63,SSW,198,1.0,1.0,24,0.00,,,0.00,Wunderground v.1.15,2013-04-29 08:35:00,
2013-04-29 01:40:00,75.4,37.1,29.63,South,186,1.0,1.0,25,0.00,,,0.00,Wunderground v.1.15,2013-04-29 08:40:00,
2013-04-29 01:50:00,74.9,38.7,29.63,SW,218,3.0,8.0,27,0.00,,,0.00,Wunderground v.1.15,2013-04-29 08:50:00,
2013-04-29 01:55:00,74.9,39.6,29.63,SSW,206,5.0,9.0,28,0.00,,,0.00,Wunderground v.1.15,2013-04-29 08:55:00,
2013-04-29 02:05:00,74.9,38.7,29.63,SW,229,5.0,6.0,27,0.00,,,0.00,Wunderground v.1.15,2013-04-29 09:05:00,
2013-04-29 02:15:00,74.9,37.7,29.63,SSW,196,1.0,4.0,26,0.00,,,0.00,Wunderground v.1.15,2013-04-29 09:15:00,
2013-04-29 02:25:00,74.9,37.7,29.63,SSW,212,3.0,3.0,26,0.00,,,0.00,Wunderground v.1.15,2013-04-29 09:25:00,
2013-04-29 02:30:00,74.6,38.4,29.63,SSW,201,2.0,2.0,27,0.00,,,0.00,Wunderground v.1.15,2013-04-29 09:30:00,
2013-04-29 02:40:00,74.2,38.1,29.62,SSW,207,1.0,1.0,27,0.00,,,0.00,Wunderground v.1.15,2013-04-29 09:40:00,
2013-04-29 02:50:00,73.5,38.4,29.62,SW,218,0.0,0.0,28,0.00,,,0.00,Wunderground v.1.15,2013-04-29 09:50:00,
2013-04-29 02:55:00,73.3,38.2,29.62,SSW,200,0.0,0.0,28,0.00,,,0.00,Wunderground v.1.15,2013-04-29 09:55:00,
2013-04-29 03:05:00,73.0,38.9,29.61,SW,215,0.0,4.0,29,0.00,,,0.00,Wunderground v.1.15,2013-04-29 10:05:00,
2013-04-29 03:15:00,73.0,38.9,29.61,SSW,213,2.0,5.0,29,0.00,,,0.00,Wunderground v.1.15,2013-04-29 10:15:00,
2013-04-29 03:25:00,73.2,39.0,29.61,SW,217,2.0,3.0,29,0.00,,,0.00,Wunderground v.1.15,2013-04-29 10:25:00,
2013-04-29 03:30:00,73.2,38.1,29.61,SSW,213,1.0,1.0,28,0.00,,,0.00,Wunderground v.1.15,2013-04-29 10:30:00,
2013-04-29 03:40:00,74.2,39.0,29.61,SW,221,4.0,9.0,28,0.00,,,0.00,Wunderground v.1.15,2013-04-29 10:40:00,
2013-04-29 03:45:00,74.4,38.2,29.61,South,191,4.0,9.0,27,0.00,,,0.00,Wunderground v.1.15,2013-04-29 10:45:00,
2013-04-29 03:55:00,74.7,37.5,29.61,SSW,213,4.0,5.0,26,0.00,,,0.00,Wunderground v.1.15,2013-04-29 10:55:00,
2013-04-29 04:05:00,74.6,37.4,29.61,SSW,213,2.0,3.0,26,0.00,,,0.00,Wunderground v.1.15,2013-04-29 11:05:00,
2013-04-29 04:15:00,74.0,36.9,29.61,SW,223,3.0,6.0,26,0.00,,,0.00,Wunderground v.1.15,2013-04-29 11:15:00,
2013-04-29 04:20:00,74.0,36.9,29.61,SSW,200,4.0,4.0,26,0.00,,,0.00,Wunderground v.1.15,2013-04-29 11:20:00,
2013-04-29 04:30:00,73.7,37.6,29.61,SSW,207,3.0,3.0,27,0.00,,,0.00,Wunderground v.1.15,2013-04-29 11:30:00,
2013-04-29 04:40:00,73.2,38.1,29.61,SSW,207,1.0,1.0,28,0.00,,,0.00,Wunderground v.1.15,2013-04-29 11:40:00,
2013-04-29 04:45:00,73.0,37.0,29.61,SSW,204,1.0,1.0,27,0.00,,,0.00,Wunderground v.1.15,2013-04-29 11:45:00,
2013-04-29 04:55:00,73.2,37.2,29.61,SSW,210,1.0,2.0,27,0.00,,,0.00,Wunderground v.1.15,2013-04-29 11:55:00,
2013-04-29 06:30:00,68.1,37.1,29.63,South,188,0.0,0.0,32,0.00,,,0.00,Wunderground v.1.15,2013-04-29 13:30:00,
2013-04-29 06:35:00,68.3,36.5,29.63,South,188,0.0,0.0,31,0.00,,,0.00,Wunderground v.1.15,2013-04-29 13:35:00,
2013-04-29 06:45:00,69.4,39.0,29.63,South,188,0.0,0.0,33,0.00,,,0.00,Wunderground v.1.15,2013-04-29 13:45:00,
2013-04-29 06:50:00,69.4,42.0,29.64,South,188,0.0,0.0,37,0.00,,,0.00,Wunderground v.1.15,2013-04-29 13:50:00,
2013-04-29 06:55:00,69.6,39.2,29.64,South,188,0.0,0.0,33,0.00,,,0.00,Wunderground v.1.15,2013-04-29 13:55:00,
2013-04-29 07:05:00,70.8,38.7,29.65,South,188,0.0,0.0,31,0.00,,,0.00,Wunderground v.1.15,2013-04-29 14:05:00,
2013-04-29 07:15:00,71.8,40.3,29.65,South,188,0.0,0.0,32,0.00,,,0.00,Wunderground v.1.15,2013-04-29 14:15:00,
2013-04-29 07:25:00,73.3,41.6,29.65,South,188,0.0,0.0,32,0.00,,,0.00,Wunderground v.1.15,2013-04-29 14:25:00,
2013-04-29 07:35:00,74.0,37.9,29.65,South,188,0.0,0.0,27,0.00,,,0.00,Wunderground v.1.15,2013-04-29 14:35:00,
2013-04-29 07:40:00,74.0,38.8,29.65,South,188,0.0,0.0,28,0.00,,,0.00,Wunderground v.1.15,2013-04-29 14:40:00,
2013-04-29 07:50:00,74.0,38.8,29.65,South,188,0.0,0.0,28,0.00,,,0.00,Wunderground v.1.15,2013-04-29 14:50:00,
2013-04-29 07:55:00,73.9,38.7,29.65,SSW,198,0.0,0.0,28,0.00,,,0.00,Wunderground v.1.15,2013-04-29 14:55:00,
2013-04-29 08:05:00,73.9,37.8,29.65,SSW,196,0.0,0.0,27,0.00,,,0.00,Wunderground v.1.15,2013-04-29 15:05:00,
2013-04-29 08:15:00,75.1,37.9,29.65,SSW,197,0.0,0.0,26,0.00,,,0.00,Wunderground v.1.15,2013-04-29 15:15:00,
2013-04-29 08:25:00,76.1,39.7,29.65,SSW,192,0.0,0.0,27,0.00,,,0.00,Wunderground v.1.15,2013-04-29 15:25:00,
2013-04-29 08:35:00,77.4,37.8,29.65,NW,325,0.0,0.0,24,0.00,,,0.00,Wunderground v.1.15,2013-04-29 15:35:00,
2013-04-29 08:40:00,77.7,39.1,29.65,NW,325,0.0,0.0,25,0.00,,,0.00,Wunderground v.1.15,2013-04-29 15:40:00,
2013-04-29 08:50:00,78.5,36.5,29.65,NW,325,0.0,0.0,22,0.00,,,0.00,Wunderground v.1.15,2013-04-29 15:50:00,
2013-04-29 08:55:00,79.0,39.1,29.65,NW,325,0.0,0.0,24,0.00,,,0.00,Wunderground v.1.15,2013-04-29 15:55:00,
2013-04-29 09:05:00,79.8,38.7,29.65,NNW,330,0.0,0.0,23,0.00,,,0.00,Wunderground v.1.15,2013-04-29 16:05:00,
2013-04-29 09:15:00,80.5,38.1,29.65,NNW,331,0.0,0.0,22,0.00,,,0.00,Wunderground v.1.15,2013-04-29 16:15:00,
2013-04-29 09:25:00,81.6,36.6,29.65,WNW,288,0.0,0.0,20,0.00,,,0.00,Wunderground v.1.15,2013-04-29 16:25:00,
2013-04-29 09:30:00,82.4,33.2,29.65,NW,309,0.0,0.0,17,0.00,,,0.00,Wunderground v.1.15,2013-04-29 16:30:00,
2013-04-29 09:40:00,83.2,33.8,29.65,WNW,299,0.0,0.0,17,0.00,,,0.00,Wunderground v.1.15,2013-04-29 16:40:00,
2013-04-29 09:50:00,84.1,34.6,29.64,WNW,299,0.0,0.0,17,0.00,,,0.00,Wunderground v.1.15,2013-04-29 16:50:00,
2013-04-29 09:55:00,84.5,31.8,29.64,WNW,299,0.0,0.0,15,0.00,,,0.00,Wunderground v.1.15,2013-04-29 16:55:00,
2013-04-29 10:05:00,85.5,34.2,29.64,WNW,302,0.0,0.0,16,0.00,,,0.00,Wunderground v.1.15,2013-04-29 17:05:00,
2013-04-29 10:15:00,85.9,32.9,29.64,NNW,329,0.0,0.0,15,0.00,,,0.00,Wunderground v.1.15,2013-04-29 17:15:00,
2013-04-29 10:20:00,85.9,34.5,29.64,NNW,329,0.0,0.0,16,0.00,,,0.00,Wunderground v.1.15,2013-04-29 17:20:00,
2013-04-29 10:25:00,86.1,31.3,29.64,NNW,330,0.0,0.0,14,0.00,,,0.00,Wunderground v.1.15,2013-04-29 17:25:00,
2013-04-29 10:35:00,86.3,31.5,29.64,NNW,330,0.0,0.0,14,0.00,,,0.00,Wunderground v.1.15,2013-04-29 17:35:00,
2013-04-29 10:40:00,86.5,36.5,29.64,NNW,337,0.0,0.0,17,0.00,,,0.00,Wunderground v.1.15,2013-04-29 17:40:00,
2013-04-29 10:45:00,87.0,35.4,29.64,NW,321,0.0,0.0,16,0.00,,,0.00,Wunderground v.1.15,2013-04-29 17:45:00,
2013-04-29 10:50:00,87.2,33.9,29.64,NE,40,0.0,0.0,15,0.00,,,0.00,Wunderground v.1.15,2013-04-29 17:50:00,
2013-04-29 11:00:00,87.0,35.4,29.64,WNW,301,0.0,0.0,16,0.00,,,0.00,Wunderground v.1.15,2013-04-29 18:00:00,
2013-04-29 11:05:00,87.2,33.9,29.64,WNW,301,0.0,0.0,15,0.00,,,0.00,Wunderground v.1.15,2013-04-29 18:05:00,
2013-04-29 11:15:00,88.0,32.8,29.64,West,261,0.0,0.0,14,0.00,,,0.00,Wunderground v.1.15,2013-04-29 18:15:00,
2013-04-29 11:20:00,88.4,33.1,29.64,North,360,0.0,0.0,14,0.00,,,0.00,Wunderground v.1.15,2013-04-29 18:20:00,
2013-04-29 11:30:00,88.8,35.2,29.64,East,80,0.0,4.0,15,0.00,,,0.00,Wunderground v.1.15,2013-04-29 18:30:00,
2013-04-29 11:35:00,88.8,35.2,29.63,SE,133,0.0,4.0,15,0.00,,,0.00,Wunderground v.1.15,2013-04-29 18:35:00,
2013-04-29 11:45:00,89.0,37.0,29.63,NE,42,0.0,0.0,16,0.00,,,0.00,Wunderground v.1.15,2013-04-29 18:45:00,
2013-04-29 11:50:00,89.7,32.3,29.63,East,94,0.0,0.0,13,0.00,,,0.00,Wunderground v.1.15,2013-04-29 18:50:00,
2013-04-29 12:00:00,90.3,34.6,29.63,West,281,0.0,0.0,14,0.00,,,0.00,Wunderground v.1.15,2013-04-29 19:00:00,
2013-04-29 12:05:00,91.0,33.3,29.62,East,91,0.0,0.0,13,0.00,,,0.00,Wunderground v.1.15,2013-04-29 19:05:00,
2013-04-29 12:15:00,91.4,33.6,29.62,NE,43,0.0,0.0,13,0.00,,,0.00,Wunderground v.1.15,2013-04-29 19:15:00,
2013-04-29 12:20:00,90.7,33.1,29.61,ENE,64,0.0,0.0,13,0.00,,,0.00,Wunderground v.1.15,2013-04-29 19:20:00,
2013-04-29 12:30:00,91.2,31.5,29.61,ENE,71,0.0,0.0,12,0.00,,,0.00,Wunderground v.1.15,2013-04-29 19:30:00,
2013-04-29 12:35:00,91.4,29.5,29.61,East,93,0.0,0.0,11,0.00,,,0.00,Wunderground v.1.15,2013-04-29 19:35:00,
2013-04-29 12:45:00,91.6,31.8,29.61,SE,128,0.0,0.0,12,0.00,,,0.00,Wunderground v.1.15,2013-04-29 19:45:00,
2013-04-29 12:55:00,92.3,34.3,29.59,SSE,164,0.0,0.0,13,0.00,,,0.00,Wunderground v.1.15,2013-04-29 19:55:00,
2013-04-29 13:00:00,92.9,30.6,29.59,ENE,73,0.0,2.0,11,0.00,,,0.00,Wunderground v.1.15,2013-04-29 20:00:00,
2013-04-29 13:05:00,92.1,30.0,29.59,ENE,61,0.0,2.0,11,0.00,,,0.00,Wunderground v.1.15,2013-04-29 20:05:00,
2013-04-29 13:15:00,92.1,34.2,29.59,NE,55,1.0,1.0,13,0.00,,,0.00,Wunderground v.1.15,2013-04-29 20:15:00,
2013-04-29 13:25:00,93.8,31.3,29.58,SW,235,1.0,1.0,11,0.00,,,0.00,Wunderground v.1.15,2013-04-29 20:25:00,
2013-04-29 13:30:00,93.4,28.7,29.58,West,265,2.0,2.0,10,0.00,,,0.00,Wunderground v.1.15,2013-04-29 20:30:00,
2013-04-29 13:40:00,93.8,31.3,29.57,West,261,2.0,2.0,11,0.00,,,0.00,Wunderground v.1.15,2013-04-29 20:40:00,
2013-04-29 13:45:00,94.0,31.5,29.57,South,176,1.0,2.0,11,0.00,,,0.00,Wunderground v.1.15,2013-04-29 20:45:00,
2013-04-29 13:55:00,94.7,32.0,29.56,SE,140,0.0,1.0,11,0.00,,,0.00,Wunderground v.1.15,2013-04-29 20:55:00,
2013-04-29 14:05:00,94.9,32.2,29.56,SE,142,0.0,3.0,11,0.00,,,0.00,Wunderground v.1.15,2013-04-29 21:05:00,
2013-04-29 14:15:00,94.7,29.7,29.56,SSW,206,3.0,3.0,10,0.00,,,0.00,Wunderground v.1.15,2013-04-29 21:15:00,
2013-04-29 14:25:00,94.5,29.5,29.55,WSW,251,2.0,10.0,10,0.00,,,0.00,Wunderground v.1.15,2013-04-29 21:25:00,
2013-04-29 14:30:00,94.9,32.2,29.55,SSW,204,4.0,4.0,11,0.00,,,0.00,Wunderground v.1.15,2013-04-29 21:30:00,
2013-04-29 14:40:00,94.9,29.8,29.54,SW,236,6.0,6.0,10,0.00,,,0.00,Wunderground v.1.15,2013-04-29 21:40:00,
2013-04-29 14:45:00,94.9,24.4,29.54,SW,221,5.0,12.0,8,0.00,,,0.00,Wunderground v.1.15,2013-04-29 21:45:00,
2013-04-29 14:55:00,95.1,30.0,29.53,South,175,3.0,4.0,10,0.00,,,0.00,Wunderground v.1.15,2013-04-29 21:55:00,
2013-04-29 15:00:00,94.9,27.2,29.53,SSW,207,3.0,3.0,9,0.00,,,0.00,Wunderground v.1.15,2013-04-29 22:00:00,
2013-04-29 15:05:00,94.9,24.4,29.53,SW,227,3.0,7.0,8,0.00,,,0.00,Wunderground v.1.15,2013-04-29 22:05:00,
2013-04-29 15:15:00,94.9,27.2,29.53,SSW,194,3.0,3.0,9,0.00,,,0.00,Wunderground v.1.15,2013-04-29 22:15:00,
2013-04-29 15:20:00,94.9,24.4,29.52,WSW,242,1.0,1.0,8,0.00,,,0.00,Wunderground v.1.15,2013-04-29 22:20:00,
2013-04-29 15:30:00,95.1,27.4,29.52,SW,232,2.0,5.0,9,0.00,,,0.00,Wunderground v.1.15,2013-04-29 22:30:00,
2013-04-29 15:35:00,95.6,24.9,29.51,SW,222,3.0,5.0,8,0.00,,,0.00,Wunderground v.1.15,2013-04-29 22:35:00,
2013-04-29 15:45:00,95.4,24.8,29.51,SSW,205,2.0,7.0,8,0.00,,,0.00,Wunderground v.1.15,2013-04-29 22:45:00,
2013-04-29 15:55:00,94.9,29.8,29.50,SW,222,1.0,3.0,10,0.00,,,0.00,Wunderground v.1.15,2013-04-29 22:55:00,
2013-04-29 16:00:00,94.9,27.2,29.50,SSW,213,1.0,1.0,9,0.00,,,0.00,Wunderground v.1.15,2013-04-29 23:00:00,
2013-04-29 16:05:00,94.7,27.1,29.49,South,184,3.0,3.0,9,0.00,,,0.00,Wunderground v.1.15,2013-04-29 23:05:00,
2013-04-29 16:15:00,94.7,27.1,29.49,SW,229,2.0,3.0,9,0.00,,,0.00,Wunderground v.1.15,2013-04-29 23:15:00,
2013-04-29 16:20:00,94.9,24.4,29.48,SSW,205,1.0,1.0,8,0.00,,,0.00,Wunderground v.1.15,2013-04-29 23:20:00,
2013-04-29 16:25:00,95.1,27.4,29.48,SSE,164,1.0,1.0,9,0.00,,,0.00,Wunderground v.1.15,2013-04-29 23:25:00,
2013-04-29 16:35:00,94.7,27.1,29.48,SSW,204,2.0,3.0,9,0.00,,,0.00,Wunderground v.1.15,2013-04-29 23:35:00,
2013-04-29 16:40:00,94.5,31.9,29.48,SSW,202,2.0,4.0,11,0.00,,,0.00,Wunderground v.1.15,2013-04-29 23:40:00,
2013-04-29 16:50:00,94.5,31.9,29.47,SSE,159,3.0,3.0,11,0.00,,,0.00,Wunderground v.1.15,2013-04-29 23:50:00,
2013-04-29 17:00:00,94.3,33.9,29.47,South,182,2.0,2.0,12,0.00,,,0.00,Wunderground v.1.15,2013-04-30 00:00:00,
2013-04-29 17:05:00,94.9,34.3,29.47,WSW,249,5.0,5.0,12,0.00,,,0.00,Wunderground v.1.15,2013-04-30 00:05:00,
2013-04-29 17:15:00,93.8,35.5,29.47,SSW,209,8.0,8.0,13,0.00,,,0.00,Wunderground v.1.15,2013-04-30 00:15:00,
2013-04-29 17:20:00,93.6,33.3,29.46,SW,221,8.0,11.0,12,0.00,,,0.00,Wunderground v.1.15,2013-04-30 00:20:00,
2013-04-29 17:25:00,93.2,35.0,29.46,SSW,198,7.0,12.0,13,0.00,,,0.00,Wunderground v.1.15,2013-04-30 00:25:00,
2013-04-29 17:30:00,93.4,35.2,29.46,SSW,207,7.0,7.0,13,0.00,,,0.00,Wunderground v.1.15,2013-04-30 00:30:00,
2013-04-29 17:40:00,92.9,34.8,29.46,SW,227,7.0,11.0,13,0.00,,,0.00,Wunderground v.1.15,2013-04-30 00:40:00,
2013-04-29 17:50:00,92.9,34.8,29.46,WSW,252,7.0,11.0,13,0.00,,,0.00,Wunderground v.1.15,2013-04-30 00:50:00,
2013-04-29 18:00:00,92.3,34.3,29.46,WSW,247,11.0,11.0,13,0.00,,,0.00,Wunderground v.1.15,2013-04-30 01:00:00,
2013-04-29 18:05:00,92.3,34.3,29.46,SW,229,11.0,11.0,13,0.00,,,0.00,Wunderground v.1.15,2013-04-30 01:05:00,
2013-04-29 18:15:00,91.8,32.0,29.46,SW,218,9.0,12.0,12,0.00,,,0.00,Wunderground v.1.15,2013-04-30 01:15:00,
2013-04-29 18:20:00,91.4,31.6,29.46,SW,223,9.0,12.0,12,0.00,,,0.00,Wunderground v.1.15,2013-04-30 01:20:00,
2013-04-29 18:25:00,91.2,33.5,29.46,West,261,10.0,12.0,13,0.00,,,0.00,Wunderground v.1.15,2013-04-30 01:25:00,
2013-04-29 18:35:00,90.5,30.9,29.46,West,262,10.0,14.0,12,0.00,,,0.00,Wunderground v.1.15,2013-04-30 01:35:00,
2013-04-29 18:45:00,89.5,32.2,29.46,WSW,250,11.0,15.0,13,0.00,,,0.00,Wunderground v.1.15,2013-04-30 01:45:00,
2013-04-29 18:50:00,88.8,33.4,29.46,WSW,249,11.0,15.0,14,0.00,,,0.00,Wunderground v.1.15,2013-04-30 01:50:00,
2013-04-29 19:00:00,87.8,34.4,29.46,SSW,198,11.0,13.0,15,0.00,,,0.00,Wunderground v.1.15,2013-04-30 02:00:00,
2013-04-29 19:05:00,87.0,35.4,29.46,WSW,249,12.0,16.0,16,0.00,,,0.00,Wunderground v.1.15,2013-04-30 02:05:00,
2013-04-29 19:15:00,85.9,37.5,29.46,SW,221,13.0,14.0,18,0.00,,,0.00,Wunderground v.1.15,2013-04-30 02:15:00,
2013-04-29 19:20:00,85.3,37.0,29.45,WSW,250,12.0,18.0,18,0.00,,,0.00,Wunderground v.1.15,2013-04-30 02:20:00,
2013-04-29 19:30:00,84.5,37.7,29.45,WSW,246,12.0,12.0,19,0.00,,,0.00,Wunderground v.1.15,2013-04-30 02:30:00,
2013-04-29 19:35:00,84.1,38.7,29.46,SW,224,12.0,12.0,20,0.00,,,0.00,Wunderground v.1.15,2013-04-30 02:35:00,
2013-04-29 19:45:00,83.6,37.0,29.46,SSW,211,10.0,16.0,19,0.00,,,0.00,Wunderground v.1.15,2013-04-30 02:45:00,
2013-04-29 19:50:00,83.6,37.0,29.45,SSW,192,9.0,12.0,19,0.00,,,0.00,Wunderground v.1.15,2013-04-30 02:50:00,
2013-04-29 20:05:00,82.8,36.3,29.45,South,175,10.0,19.0,19,0.00,,,0.00,Wunderground v.1.15,2013-04-30 03:05:00,
2013-04-29 20:15:00,82.2,37.1,29.45,SW,234,12.0,12.0,20,0.00,,,0.00,Wunderground v.1.15,2013-04-30 03:15:00,
2013-04-29 20:20:00,82.2,37.1,29.45,SW,218,10.0,15.0,20,0.00,,,0.00,Wunderground v.1.15,2013-04-30 03:20:00,
2013-04-29 20:30:00,81.6,36.6,29.45,SW,224,12.0,12.0,20,0.00,,,0.00,Wunderground v.1.15,2013-04-30 03:30:00,
2013-04-29 21:45:00,79.8,35.1,29.46,SW,221,6.0,7.0,20,0.00,,,0.00,Wunderground v.1.15,2013-04-30 04:45:00,
2013-04-29 21:50:00,79.6,36.2,29.47,SSW,198,6.0,7.0,21,0.00,,,0.00,Wunderground v.1.15,2013-04-30 04:50:00,
2013-04-29 21:55:00,79.4,36.0,29.47,SSW,196,6.0,7.0,21,0.00,,,0.00,Wunderground v.1.15,2013-04-30 04:55:00,
2013-04-29 22:05:00,79.2,37.1,29.46,WSW,242,6.0,11.0,22,0.00,,,0.00,Wunderground v.1.15,2013-04-30 05:05:00,
2013-04-29 22:15:00,78.8,37.9,29.46,SSW,211,6.0,7.0,23,0.00,,,0.00,Wunderground v.1.15,2013-04-30 05:15:00,
2013-04-29 22:25:00,78.8,36.7,29.46,SW,217,8.0,10.0,22,0.00,,,0.00,Wunderground v.1.15,2013-04-30 05:25:00,
2013-04-29 22:30:00,78.6,37.7,29.46,SW,220,8.0,8.0,23,0.00,,,0.00,Wunderground v.1.15,2013-04-30 05:30:00,
2013-04-29 22:40:00,78.5,36.5,29.46,SSW,210,9.0,9.0,22,0.00,,,0.00,Wunderground v.1.15,2013-04-30 05:40:00,
2013-04-29 22:45:00,78.5,37.6,29.46,SW,227,10.0,13.0,23,0.00,,,0.00,Wunderground v.1.15,2013-04-30 05:45:00,
2013-04-29 22:50:00,78.3,37.4,29.46,SW,218,9.0,9.0,23,0.00,,,0.00,Wunderground v.1.15,2013-04-30 05:50:00,
2013-04-29 22:55:00,77.7,38.0,29.46,SW,217,9.0,9.0,24,0.00,,,0.00,Wunderground v.1.15,2013-04-30 05:55:00,
2013-04-29 23:05:00,77.6,37.9,29.46,WSW,239,7.0,11.0,24,0.00,,,0.00,Wunderground v.1.15,2013-04-30 06:05:00,
2013-04-29 23:15:00,77.2,38.6,29.46,SSW,201,3.0,6.0,25,0.00,,,0.00,Wunderground v.1.15,2013-04-30 06:15:00,
2013-04-29 23:25:00,76.3,40.8,29.46,South,186,3.0,5.0,28,0.00,,,0.00,Wunderground v.1.15,2013-04-30 06:25:00,
2013-04-29 23:30:00,76.1,40.6,29.46,SSW,204,5.0,10.0,28,0.00,,,0.00,Wunderground v.1.15,2013-04-30 06:30:00,
2013-04-29 23:40:00,76.3,39.8,29.46,SW,229,6.0,6.0,27,0.00,,,0.00,Wunderground v.1.15,2013-04-30 06:40:00,
2013-04-29 23:50:00,76.3,39.8,29.46,SSW,199,4.0,5.0,27,0.00,,,0.00,Wunderground v.1.15,2013-04-30 06:50:00,